sensor_id;sensor_type;location;lat;lon;timestamp;pressure;altitude;pressure_sealevel;temperature;humidity
9277;BME280;4676;42.678;23.244;2024-02-28T00:00:25;94403.88;;;7.68;100.00
9277;BME280;4676;42.678;23.244;2024-02-28T00:02:52;94405.59;;;7.68;100.00
9277;BME280;4676;42.678;23.244;2024-02-28T00:05:19;94408.16;;;7.66;100.00
9277;BME280;4676;42.678;23.244;2024-02-28T00:07:45;94407.16;;;7.73;100.00
9277;BME280;4676;42.678;23.244;2024-02-28T00:10:12;94406.91;;;7.82;100.00
9277;BME280;4676;42.678;23.244;2024-02-28T00:12:39;94403.47;;;7.85;100.00
9277;BME280;4676;42.678;23.244;2024-02-28T00:15:09;94410.75;;;7.63;100.00
9277;BME280;4676;42.678;23.244;2024-02-28T00:17:40;94364.47;;;7.30;100.00
9277;BME280;4676;42.678;23.244;2024-02-28T00:20:08;94396.06;;;7.43;100.00
9277;BME280;4676;42.678;23.244;2024-02-28T00:22:35;94415.16;;;7.53;100.00
9277;BME280;4676;42.678;23.244;2024-02-28T00:25:03;94412.00;;;7.45;100.00
9277;BME280;4676;42.678;23.244;2024-02-28T00:27:32;94415.47;;;7.41;100.00
9277;BME280;4676;42.678;23.244;2024-02-28T00:29:58;94411.00;;;7.52;100.00
9277;BME280;4676;42.678;23.244;2024-02-28T00:32:25;94416.72;;;7.59;100.00
9277;BME280;4676;42.678;23.244;2024-02-28T00:34:53;94409.41;;;7.48;100.00
9277;BME280;4676;42.678;23.244;2024-02-28T00:37:20;94411.00;;;7.52;100.00
9277;BME280;4676;42.678;23.244;2024-02-28T00:39:47;94403.44;;;7.52;100.00
9277;BME280;4676;42.678;23.244;2024-02-28T00:42:14;94399.34;;;7.48;100.00
9277;BME280;4676;42.678;23.244;2024-02-28T00:44:41;94406.13;;;7.45;100.00
9277;BME280;4676;42.678;23.244;2024-02-28T00:47:08;94399.19;;;7.53;100.00
9277;BME280;4676;42.678;23.244;2024-02-28T00:49:35;94404.03;;;7.62;100.00
9277;BME280;4676;42.678;23.244;2024-02-28T00:52:03;94396.41;;;7.65;100.00
9277;BME280;4676;42.678;23.244;2024-02-28T00:54:30;94406.66;;;7.58;100.00
9277;BME280;4676;42.678;23.244;2024-02-28T00:56:57;94404.00;;;7.64;100.00
9277;BME280;4676;42.678;23.244;2024-02-28T00:59:25;94416.75;;;7.58;100.00
9277;BME280;4676;42.678;23.244;2024-02-28T01:01:52;94412.53;;;7.58;100.00
9277;BME280;4676;42.678;23.244;2024-02-28T01:04:18;94407.31;;;7.66;100.00
9277;BME280;4676;42.678;23.244;2024-02-28T01:06:45;94418.19;;;7.68;100.00
9277;BME280;4676;42.678;23.244;2024-02-28T01:09:13;94421.13;;;7.49;100.00
9277;BME280;4676;42.678;23.244;2024-02-28T01:11:40;94415.41;;;7.43;100.00
9277;BME280;4676;42.678;23.244;2024-02-28T01:14:06;94411.28;;;7.39;100.00
9277;BME280;4676;42.678;23.244;2024-02-28T01:16:33;94415.78;;;7.28;100.00
9277;BME280;4676;42.678;23.244;2024-02-28T01:19:00;94415.78;;;7.28;100.00
9277;BME280;4676;42.678;23.244;2024-02-28T01:21:27;94421.69;;;7.25;100.00
9277;BME280;4676;42.678;23.244;2024-02-28T01:23:53;94413.66;;;7.46;100.00
9277;BME280;4676;42.678;23.244;2024-02-28T01:26:20;94414.97;;;7.26;100.00
9277;BME280;4676;42.678;23.244;2024-02-28T01:28:47;94424.34;;;7.21;100.00
9277;BME280;4676;42.678;23.244;2024-02-28T01:31:14;94426.13;;;7.16;100.00
9277;BME280;4676;42.678;23.244;2024-02-28T01:33:41;94425.22;;;7.18;100.00
9277;BME280;4676;42.678;23.244;2024-02-28T01:36:07;94390.69;;;7.22;100.00
9277;BME280;4676;42.678;23.244;2024-02-28T01:38:35;94409.44;;;7.10;100.00
9277;BME280;4676;42.678;23.244;2024-02-28T01:41:02;94421.22;;;7.08;100.00
9277;BME280;4676;42.678;23.244;2024-02-28T01:43:32;94428.84;;;7.07;100.00
9277;BME280;4676;42.678;23.244;2024-02-28T01:46:00;94421.38;;;7.02;100.00
9277;BME280;4676;42.678;23.244;2024-02-28T01:48:26;94431.44;;;7.03;100.00
9277;BME280;4676;42.678;23.244;2024-02-28T01:50:54;94421.34;;;7.03;100.00
9277;BME280;4676;42.678;23.244;2024-02-28T01:53:21;94423.81;;;7.07;100.00
9277;BME280;4676;42.678;23.244;2024-02-28T01:55:48;94425.66;;;6.98;100.00
9277;BME280;4676;42.678;23.244;2024-02-28T01:58:15;94415.03;;;6.84;100.00
9277;BME280;4676;42.678;23.244;2024-02-28T02:00:43;94433.50;;;6.85;100.00
9277;BME280;4676;42.678;23.244;2024-02-28T02:03:11;94417.06;;;6.67;100.00
9277;BME280;4676;42.678;23.244;2024-02-28T02:05:38;94432.72;;;6.81;100.00
9277;BME280;4676;42.678;23.244;2024-02-28T02:08:05;94429.31;;;6.84;100.00
9277;BME280;4676;42.678;23.244;2024-02-28T02:10:32;94428.47;;;6.85;100.00
9277;BME280;4676;42.678;23.244;2024-02-28T02:13:04;94420.16;;;6.80;100.00
9277;BME280;4676;42.678;23.244;2024-02-28T02:15:31;94423.34;;;6.89;100.00
9277;BME280;4676;42.678;23.244;2024-02-28T02:17:59;94427.25;;;7.01;100.00
9277;BME280;4676;42.678;23.244;2024-02-28T02:20:26;94410.81;;;6.85;100.00
9277;BME280;4676;42.678;23.244;2024-02-28T02:22:58;94422.34;;;6.96;100.00
9277;BME280;4676;42.678;23.244;2024-02-28T02:25:23;94420.53;;;7.03;100.00
9277;BME280;4676;42.678;23.244;2024-02-28T02:27:50;94422.38;;;6.95;100.00
9277;BME280;4676;42.678;23.244;2024-02-28T02:30:17;94426.72;;;6.87;100.00
9277;BME280;4676;42.678;23.244;2024-02-28T02:32:43;94427.56;;;6.87;100.00
9277;BME280;4676;42.678;23.244;2024-02-28T02:35:10;94401.91;;;6.69;100.00
9277;BME280;4676;42.678;23.244;2024-02-28T02:37:37;94428.47;;;6.85;100.00
9277;BME280;4676;42.678;23.244;2024-02-28T02:40:06;94426.84;;;6.81;100.00
9277;BME280;4676;42.678;23.244;2024-02-28T02:42:34;94425.25;;;6.78;100.00
9277;BME280;4676;42.678;23.244;2024-02-28T02:45:01;94425.09;;;6.86;100.00
9277;BME280;4676;42.678;23.244;2024-02-28T02:47:27;94425.97;;;6.83;100.00
9277;BME280;4676;42.678;23.244;2024-02-28T02:49:55;94407.16;;;6.58;100.00
9277;BME280;4676;42.678;23.244;2024-02-28T02:52:23;94425.19;;;6.81;100.00
9277;BME280;4676;42.678;23.244;2024-02-28T02:54:49;94430.63;;;7.01;100.00
9277;BME280;4676;42.678;23.244;2024-02-28T02:57:17;94430.22;;;6.80;100.00
9277;BME280;4676;42.678;23.244;2024-02-28T02:59:44;94426.88;;;6.79;100.00
9277;BME280;4676;42.678;23.244;2024-02-28T03:02:11;94424.94;;;6.92;100.00
9277;BME280;4676;42.678;23.244;2024-02-28T03:04:38;94426.41;;;7.02;100.00
9277;BME280;4676;42.678;23.244;2024-02-28T03:07:04;94429.72;;;7.04;100.00
9277;BME280;4676;42.678;23.244;2024-02-28T03:09:31;94410.19;;;6.75;100.00
9277;BME280;4676;42.678;23.244;2024-02-28T03:11:59;94382.25;;;6.44;100.00
9277;BME280;4676;42.678;23.244;2024-02-28T03:14:27;94432.03;;;6.73;100.00
9277;BME280;4676;42.678;23.244;2024-02-28T03:16:54;94433.66;;;6.76;100.00
9277;BME280;4676;42.678;23.244;2024-02-28T03:19:20;94430.91;;;6.88;100.00
9277;BME280;4676;42.678;23.244;2024-02-28T03:21:47;94403.78;;;6.61;100.00
9277;BME280;4676;42.678;23.244;2024-02-28T03:24:14;94412.38;;;6.50;100.00
9277;BME280;4676;42.678;23.244;2024-02-28T03:26:42;94434.75;;;6.64;100.00
9277;BME280;4676;42.678;23.244;2024-02-28T03:29:09;94439.03;;;6.59;100.00
9277;BME280;4676;42.678;23.244;2024-02-28T03:31:38;94437.97;;;6.71;100.00
9277;BME280;4676;42.678;23.244;2024-02-28T03:34:04;94445.00;;;6.55;100.00
9277;BME280;4676;42.678;23.244;2024-02-28T03:36:31;94440.88;;;6.51;100.00
9277;BME280;4676;42.678;23.244;2024-02-28T03:39:01;94437.56;;;6.49;100.00
9277;BME280;4676;42.678;23.244;2024-02-28T03:41:28;94446.16;;;6.39;100.00
9277;BME280;4676;42.678;23.244;2024-02-28T03:43:54;94448.81;;;6.30;100.00
9277;BME280;4676;42.678;23.244;2024-02-28T03:46:21;94445.44;;;6.32;100.00
9277;BME280;4676;42.678;23.244;2024-02-28T03:48:49;94452.88;;;6.37;100.00
9277;BME280;4676;42.678;23.244;2024-02-28T03:51:16;94430.13;;;6.43;100.00
9277;BME280;4676;42.678;23.244;2024-02-28T03:53:43;94439.50;;;6.35;100.00
9277;BME280;4676;42.678;23.244;2024-02-28T03:56:09;94453.06;;;6.26;100.00
9277;BME280;4676;42.678;23.244;2024-02-28T03:58:36;94451.38;;;6.28;100.00
9277;BME280;4676;42.678;23.244;2024-02-28T04:01:03;94446.53;;;6.19;100.00
9277;BME280;4676;42.678;23.244;2024-02-28T04:03:30;94447.50;;;6.11;100.00
9277;BME280;4676;42.678;23.244;2024-02-28T04:05:59;94446.53;;;6.19;100.00
9277;BME280;4676;42.678;23.244;2024-02-28T04:08:25;94439.88;;;6.15;100.00
9277;BME280;4676;42.678;23.244;2024-02-28T04:10:52;94430.91;;;5.99;100.00
9277;BME280;4676;42.678;23.244;2024-02-28T04:13:19;94438.97;;;6.18;100.00
9277;BME280;4676;42.678;23.244;2024-02-28T04:15:45;94439.84;;;6.17;100.00
9277;BME280;4676;42.678;23.244;2024-02-28T04:18:12;94444.03;;;6.18;100.00
9277;BME280;4676;42.678;23.244;2024-02-28T04:20:39;94439.72;;;6.23;100.00
9277;BME280;4676;42.678;23.244;2024-02-28T04:23:07;94420.06;;;5.95;100.00
9277;BME280;4676;42.678;23.244;2024-02-28T04:25:34;94435.94;;;5.99;100.00
9277;BME280;4676;42.678;23.244;2024-02-28T04:28:01;94446.06;;;5.97;100.00
9277;BME280;4676;42.678;23.244;2024-02-28T04:30:28;94439.34;;;5.96;100.00
9277;BME280;4676;42.678;23.244;2024-02-28T04:32:54;94440.91;;;6.05;100.00
9277;BME280;4676;42.678;23.244;2024-02-28T04:35:21;94437.63;;;6.00;100.00
9277;BME280;4676;42.678;23.244;2024-02-28T04:37:50;94428.38;;;6.00;100.00
9277;BME280;4676;42.678;23.244;2024-02-28T04:40:18;94430.97;;;5.96;100.00
9277;BME280;4676;42.678;23.244;2024-02-28T04:42:45;94441.88;;;5.95;100.00
9277;BME280;4676;42.678;23.244;2024-02-28T04:45:11;94445.16;;;6.01;100.00
9277;BME280;4676;42.678;23.244;2024-02-28T04:47:38;94442.56;;;6.05;100.00
9277;BME280;4676;42.678;23.244;2024-02-28T04:50:06;94417.00;;;5.78;100.00
9277;BME280;4676;42.678;23.244;2024-02-28T04:52:33;94441.88;;;5.96;100.00
9277;BME280;4676;42.678;23.244;2024-02-28T04:55:00;94442.91;;;5.83;100.00
9277;BME280;4676;42.678;23.244;2024-02-28T04:57:28;94457.91;;;5.91;100.00
9277;BME280;4676;42.678;23.244;2024-02-28T04:59:55;94452.81;;;5.94;100.00
9277;BME280;4676;42.678;23.244;2024-02-28T05:02:22;94448.66;;;5.91;100.00
9277;BME280;4676;42.678;23.244;2024-02-28T05:04:49;94456.19;;;5.91;100.00
9277;BME280;4676;42.678;23.244;2024-02-28T05:07:16;94457.09;;;5.89;100.00
9277;BME280;4676;42.678;23.244;2024-02-28T05:09:43;94462.16;;;5.87;100.00
9277;BME280;4676;42.678;23.244;2024-02-28T05:12:09;94462.16;;;5.87;100.00
9277;BME280;4676;42.678;23.244;2024-02-28T05:14:39;94467.75;;;6.03;100.00
9277;BME280;4676;42.678;23.244;2024-02-28T05:17:06;94467.56;;;6.15;100.00
9277;BME280;4676;42.678;23.244;2024-02-28T05:19:33;94468.38;;;6.16;100.00
9277;BME280;4676;42.678;23.244;2024-02-28T05:22:00;94459.28;;;6.07;100.00
9277;BME280;4676;42.678;23.244;2024-02-28T05:24:28;94462.81;;;5.97;100.00
9277;BME280;4676;42.678;23.244;2024-02-28T05:26:55;94479.25;;;6.16;100.00
9277;BME280;4676;42.678;23.244;2024-02-28T05:29:21;94472.47;;;6.20;100.00
9277;BME280;4676;42.678;23.244;2024-02-28T05:31:49;94462.75;;;6.01;100.00
9277;BME280;4676;42.678;23.244;2024-02-28T05:34:16;94473.41;;;6.16;100.00
9277;BME280;4676;42.678;23.244;2024-02-28T05:36:43;94495.13;;;6.21;100.00
9277;BME280;4676;42.678;23.244;2024-02-28T05:39:10;94483.38;;;6.22;100.00
9277;BME280;4676;42.678;23.244;2024-02-28T05:41:36;94498.34;;;6.28;100.00
9277;BME280;4676;42.678;23.244;2024-02-28T05:44:03;94503.94;;;6.45;100.00
9277;BME280;4676;42.678;23.244;2024-02-28T05:46:30;94505.72;;;6.40;100.00
9277;BME280;4676;42.678;23.244;2024-02-28T05:48:58;94505.78;;;6.35;100.00
9277;BME280;4676;42.678;23.244;2024-02-28T05:51:25;94506.63;;;6.34;100.00
9277;BME280;4676;42.678;23.244;2024-02-28T05:53:52;94512.28;;;6.47;100.00
9277;BME280;4676;42.678;23.244;2024-02-28T05:56:19;94511.47;;;6.45;100.00
9277;BME280;4676;42.678;23.244;2024-02-28T05:58:47;94517.91;;;6.61;100.00
9277;BME280;4676;42.678;23.244;2024-02-28T06:01:15;94517.59;;;6.78;100.00
9277;BME280;4676;42.678;23.244;2024-02-28T06:03:42;94515.09;;;6.78;100.00
9277;BME280;4676;42.678;23.244;2024-02-28T06:06:10;94524.34;;;6.76;100.00
9277;BME280;4676;42.678;23.244;2024-02-28T06:08:39;94493.53;;;6.63;100.00
9277;BME280;4676;42.678;23.244;2024-02-28T06:11:06;94523.84;;;7.03;100.00
9277;BME280;4676;42.678;23.244;2024-02-28T06:13:33;94526.41;;;7.00;100.00
9277;BME280;4676;42.678;23.244;2024-02-28T06:16:00;94496.34;;;6.91;100.00
9277;BME280;4676;42.678;23.244;2024-02-28T06:18:27;94532.66;;;7.22;100.00
9277;BME280;4676;42.678;23.244;2024-02-28T06:20:58;94529.94;;;7.33;100.00
9277;BME280;4676;42.678;23.244;2024-02-28T06:23:27;94465.22;;;6.93;100.00
9277;BME280;4676;42.678;23.244;2024-02-28T06:25:53;94537.78;;;7.19;100.00
9277;BME280;4676;42.678;23.244;2024-02-28T06:28:20;94534.28;;;7.26;100.00
9277;BME280;4676;42.678;23.244;2024-02-28T06:30:47;94540.94;;;7.29;100.00
9277;BME280;4676;42.678;23.244;2024-02-28T06:33:14;94529.78;;;7.40;100.00
9277;BME280;4676;42.678;23.244;2024-02-28T06:35:41;94534.38;;;7.60;100.00
9277;BME280;4676;42.678;23.244;2024-02-28T06:38:07;94537.44;;;7.74;100.00
9277;BME280;4676;42.678;23.244;2024-02-28T06:40:35;94545.78;;;7.78;100.00
9277;BME280;4676;42.678;23.244;2024-02-28T06:43:02;94542.28;;;7.83;100.00
9277;BME280;4676;42.678;23.244;2024-02-28T06:45:30;94531.22;;;7.89;100.00
9277;BME280;4676;42.678;23.244;2024-02-28T06:47:57;94517.78;;;7.88;100.00
9277;BME280;4676;42.678;23.244;2024-02-28T06:50:24;94536.19;;;7.92;100.00
9277;BME280;4676;42.678;23.244;2024-02-28T06:52:50;94547.94;;;7.94;100.00
9277;BME280;4676;42.678;23.244;2024-02-28T06:55:19;94547.88;;;7.97;100.00
9277;BME280;4676;42.678;23.244;2024-02-28T06:57:47;94540.97;;;8.04;100.00
9277;BME280;4676;42.678;23.244;2024-02-28T07:00:15;94543.06;;;8.22;100.00
9277;BME280;4676;42.678;23.244;2024-02-28T07:02:41;94540.50;;;8.24;100.00
9277;BME280;4676;42.678;23.244;2024-02-28T07:05:08;94542.34;;;8.17;100.00
9277;BME280;4676;42.678;23.244;2024-02-28T07:07:35;94540.25;;;8.36;100.00
9277;BME280;4676;42.678;23.244;2024-02-28T07:10:02;94481.84;;;8.14;100.00
9277;BME280;4676;42.678;23.244;2024-02-28T07:12:29;94544.97;;;8.48;100.00
9277;BME280;4676;42.678;23.244;2024-02-28T07:14:58;94543.16;;;8.55;100.00
9277;BME280;4676;42.678;23.244;2024-02-28T07:17:24;94548.75;;;8.66;100.00
9277;BME280;4676;42.678;23.244;2024-02-28T07:19:51;94544.38;;;8.72;100.00
9277;BME280;4676;42.678;23.244;2024-02-28T07:22:18;94553.69;;;8.70;100.00
9277;BME280;4676;42.678;23.244;2024-02-28T07:24:46;94553.59;;;8.73;100.00
9277;BME280;4676;42.678;23.244;2024-02-28T07:27:13;94558.63;;;8.75;100.00
9277;BME280;4676;42.678;23.244;2024-02-28T07:29:39;94546.91;;;8.72;100.00
9277;BME280;4676;42.678;23.244;2024-02-28T07:32:07;94555.94;;;8.81;100.00
9277;BME280;4676;42.678;23.244;2024-02-28T07:34:34;94560.59;;;8.96;100.00
9277;BME280;4676;42.678;23.244;2024-02-28T07:37:01;94563.03;;;9.00;100.00
9277;BME280;4676;42.678;23.244;2024-02-28T07:39:27;94560.94;;;9.15;100.00
9277;BME280;4676;42.678;23.244;2024-02-28T07:41:54;94557.41;;;9.20;100.00
9277;BME280;4676;42.678;23.244;2024-02-28T07:44:21;94553.13;;;9.22;100.00
9277;BME280;4676;42.678;23.244;2024-02-28T07:46:48;94558.50;;;9.41;100.00
9277;BME280;4676;42.678;23.244;2024-02-28T07:49:17;94554.06;;;9.49;100.00
9277;BME280;4676;42.678;23.244;2024-02-28T07:51:44;94555.47;;;9.59;100.00
9277;BME280;4676;42.678;23.244;2024-02-28T07:54:10;94555.94;;;9.72;100.00
9277;BME280;4676;42.678;23.244;2024-02-28T07:56:37;94558.00;;;9.87;100.00
9277;BME280;4676;42.678;23.244;2024-02-28T07:59:04;94563.78;;;9.92;100.00
9277;BME280;4676;42.678;23.244;2024-02-28T08:01:30;94562.78;;;9.96;100.00
9277;BME280;4676;42.678;23.244;2024-02-28T08:03:57;94556.22;;;9.90;100.00
9277;BME280;4676;42.678;23.244;2024-02-28T08:06:26;94515.53;;;9.96;100.00
9277;BME280;4676;42.678;23.244;2024-02-28T08:08:53;94550.81;;;10.30;100.00
9277;BME280;4676;42.678;23.244;2024-02-28T08:11:19;94554.63;;;10.42;100.00
9277;BME280;4676;42.678;23.244;2024-02-28T08:13:46;94557.06;;;10.45;100.00
9277;BME280;4676;42.678;23.244;2024-02-28T08:16:13;94549.28;;;10.25;100.00
9277;BME280;4676;42.678;23.244;2024-02-28T08:18:39;94534.06;;;10.25;100.00
9277;BME280;4676;42.678;23.244;2024-02-28T08:21:06;94549.41;;;10.46;100.00
9277;BME280;4676;42.678;23.244;2024-02-28T08:23:35;94543.03;;;10.61;100.00
9277;BME280;4676;42.678;23.244;2024-02-28T08:26:02;94544.78;;;10.59;100.00
9277;BME280;4676;42.678;23.244;2024-02-28T08:28:29;94542.56;;;10.75;100.00
9277;BME280;4676;42.678;23.244;2024-02-28T08:30:56;94540.88;;;10.75;100.00
9277;BME280;4676;42.678;23.244;2024-02-28T08:33:22;94546.19;;;10.92;100.00
9277;BME280;4676;42.678;23.244;2024-02-28T08:35:49;94549.13;;;11.05;100.00
9277;BME280;4676;42.678;23.244;2024-02-28T08:38:16;94531.47;;;11.02;100.00
9277;BME280;4676;42.678;23.244;2024-02-28T08:40:44;94543.16;;;11.31;100.00
9277;BME280;4676;42.678;23.244;2024-02-28T08:43:11;94542.28;;;11.32;100.00
9277;BME280;4676;42.678;23.244;2024-02-28T08:45:38;94539.78;;;11.30;100.00
9277;BME280;4676;42.678;23.244;2024-02-28T08:48:06;94539.97;;;11.26;100.00
9277;BME280;4676;42.678;23.244;2024-02-28T08:50:33;94543.81;;;11.36;100.00
9277;BME280;4676;42.678;23.244;2024-02-28T08:52:59;94531.34;;;11.53;100.00
9277;BME280;4676;42.678;23.244;2024-02-28T08:55:26;94522.91;;;11.52;100.00
9277;BME280;4676;42.678;23.244;2024-02-28T08:57:55;94528.84;;;11.51;100.00
9277;BME280;4676;42.678;23.244;2024-02-28T09:00:22;94538.06;;;11.54;100.00
9277;BME280;4676;42.678;23.244;2024-02-28T09:02:49;94542.09;;;11.60;100.00
9277;BME280;4676;42.678;23.244;2024-02-28T09:05:16;94545.09;;;11.71;100.00
9277;BME280;4676;42.678;23.244;2024-02-28T09:07:42;94542.34;;;11.77;100.00
9277;BME280;4676;42.678;23.244;2024-02-28T09:10:09;94526.84;;;11.83;100.00
9277;BME280;4676;42.678;23.244;2024-02-28T09:12:36;94543.53;;;11.90;100.00
9277;BME280;4676;42.678;23.244;2024-02-28T09:15:05;94538.56;;;11.87;100.00
9277;BME280;4676;42.678;23.244;2024-02-28T09:17:31;94537.41;;;11.95;100.00
9277;BME280;4676;42.678;23.244;2024-02-28T09:19:58;94537.63;;;12.11;100.00
9277;BME280;4676;42.678;23.244;2024-02-28T09:22:26;94538.03;;;12.22;100.00
9277;BME280;4676;42.678;23.244;2024-02-28T09:24:53;94535.16;;;12.31;100.00
9277;BME280;4676;42.678;23.244;2024-02-28T09:27:19;94530.97;;;12.50;100.00
9277;BME280;4676;42.678;23.244;2024-02-28T09:29:46;94528.72;;;12.43;100.00
9277;BME280;4676;42.678;23.244;2024-02-28T09:32:14;94524.34;;;12.46;100.00
9277;BME280;4676;42.678;23.244;2024-02-28T09:34:41;94524.16;;;12.51;100.00
9277;BME280;4676;42.678;23.244;2024-02-28T09:37:08;94522.69;;;12.45;99.98
9277;BME280;4676;42.678;23.244;2024-02-28T09:39:34;94524.03;;;12.74;99.44
9277;BME280;4676;42.678;23.244;2024-02-28T09:42:05;94518.97;;;12.94;99.85
9277;BME280;4676;42.678;23.244;2024-02-28T09:44:32;94495.81;;;13.00;96.63
9277;BME280;4676;42.678;23.244;2024-02-28T09:47:05;94505.97;;;13.21;99.13
9277;BME280;4676;42.678;23.244;2024-02-28T09:49:34;94509.38;;;13.40;95.08
9277;BME280;4676;42.678;23.244;2024-02-28T09:52:03;94508.53;;;13.39;91.88
9277;BME280;4676;42.678;23.244;2024-02-28T09:54:30;94516.75;;;13.46;90.96
9277;BME280;4676;42.678;23.244;2024-02-28T09:56:57;94510.66;;;13.48;92.55
9277;BME280;4676;42.678;23.244;2024-02-28T09:59:24;94508.97;;;13.49;89.81
9277;BME280;4676;42.678;23.244;2024-02-28T10:01:55;94508.66;;;13.55;90.19
9277;BME280;4676;42.678;23.244;2024-02-28T10:04:23;94508.47;;;13.60;87.79
9277;BME280;4676;42.678;23.244;2024-02-28T10:06:51;94498.16;;;13.63;88.86
9277;BME280;4676;42.678;23.244;2024-02-28T10:09:18;94508.28;;;13.64;89.51
9277;BME280;4676;42.678;23.244;2024-02-28T10:11:45;94507.56;;;13.42;89.62
9277;BME280;4676;42.678;23.244;2024-02-28T10:14:17;94507.28;;;13.48;91.90
9277;BME280;4676;42.678;23.244;2024-02-28T10:16:44;94502.06;;;13.51;90.17
9277;BME280;4676;42.678;23.244;2024-02-28T10:19:11;94497.59;;;13.56;88.48
9277;BME280;4676;42.678;23.244;2024-02-28T10:21:38;94497.81;;;13.51;87.18
9277;BME280;4676;42.678;23.244;2024-02-28T10:24:06;94489.41;;;13.68;88.28
9277;BME280;4676;42.678;23.244;2024-02-28T10:26:41;94486.56;;;13.93;91.40
9277;BME280;4676;42.678;23.244;2024-02-28T10:29:08;94457.63;;;13.94;86.66
9277;BME280;4676;42.678;23.244;2024-02-28T10:31:35;94470.50;;;14.27;87.99
9277;BME280;4676;42.678;23.244;2024-02-28T10:34:02;94448.88;;;14.35;85.15
9277;BME280;4676;42.678;23.244;2024-02-28T10:36:32;94472.16;;;14.79;81.27
9277;BME280;4676;42.678;23.244;2024-02-28T10:39:00;94463.38;;;15.18;81.86
9277;BME280;4676;42.678;23.244;2024-02-28T10:41:28;94458.81;;;15.40;81.17
9277;BME280;4676;42.678;23.244;2024-02-28T10:43:55;94453.56;;;15.74;76.34
9277;BME280;4676;42.678;23.244;2024-02-28T10:46:22;94459.25;;;15.95;74.73
9277;BME280;4676;42.678;23.244;2024-02-28T10:48:49;94462.81;;;15.61;67.12
9277;BME280;4676;42.678;23.244;2024-02-28T10:51:20;94455.72;;;15.66;69.92
9277;BME280;4676;42.678;23.244;2024-02-28T10:53:50;94456.94;;;15.75;71.79
9277;BME280;4676;42.678;23.244;2024-02-28T10:56:22;94456.50;;;15.35;70.51
9277;BME280;4676;42.678;23.244;2024-02-28T10:58:52;94448.78;;;15.53;70.01
9277;BME280;4676;42.678;23.244;2024-02-28T11:01:19;94444.41;;;15.70;71.86
9277;BME280;4676;42.678;23.244;2024-02-28T11:03:47;94437.41;;;15.74;70.96
9277;BME280;4676;42.678;23.244;2024-02-28T11:06:18;94439.22;;;15.87;71.96
9277;BME280;4676;42.678;23.244;2024-02-28T11:08:47;94433.59;;;15.96;68.48
9277;BME280;4676;42.678;23.244;2024-02-28T11:11:14;94433.44;;;15.99;65.88
9277;BME280;4676;42.678;23.244;2024-02-28T11:13:53;94434.97;;;16.18;67.73
9277;BME280;4676;42.678;23.244;2024-02-28T11:16:26;94436.16;;;16.26;65.32
9277;BME280;4676;42.678;23.244;2024-02-28T11:18:53;94432.47;;;16.32;64.45
9277;BME280;4676;42.678;23.244;2024-02-28T11:21:24;94418.44;;;16.23;61.80
9277;BME280;4676;42.678;23.244;2024-02-28T11:24:02;94428.66;;;16.23;64.56
9277;BME280;4676;42.678;23.244;2024-02-28T11:26:30;94426.41;;;16.33;64.61
9277;BME280;4676;42.678;23.244;2024-02-28T11:28:58;94422.25;;;16.46;64.72
9277;BME280;4676;42.678;23.244;2024-02-28T11:31:25;94431.31;;;16.52;62.72
9277;BME280;4676;42.678;23.244;2024-02-28T11:33:51;94413.91;;;16.72;64.37
9277;BME280;4676;42.678;23.244;2024-02-28T11:36:18;94417.56;;;16.82;63.41
9277;BME280;4676;42.678;23.244;2024-02-28T11:38:45;94417.13;;;16.90;58.92
9277;BME280;4676;42.678;23.244;2024-02-28T11:41:12;94412.47;;;16.96;58.90
9277;BME280;4676;42.678;23.244;2024-02-28T11:43:38;94412.25;;;16.71;55.53
9277;BME280;4676;42.678;23.244;2024-02-28T11:46:09;94412.50;;;16.53;56.09
9277;BME280;4676;42.678;23.244;2024-02-28T11:48:36;94388.88;;;16.33;55.62
9277;BME280;4676;42.678;23.244;2024-02-28T11:51:03;94407.19;;;16.26;56.05
9277;BME280;4676;42.678;23.244;2024-02-28T11:53:29;94402.00;;;16.27;57.54
9277;BME280;4676;42.678;23.244;2024-02-28T11:55:56;94398.31;;;16.47;58.71
9277;BME280;4676;42.678;23.244;2024-02-28T11:58:23;94394.94;;;16.46;55.94
9277;BME280;4676;42.678;23.244;2024-02-28T12:00:50;94388.91;;;16.47;55.51
9277;BME280;4676;42.678;23.244;2024-02-28T12:03:22;94365.38;;;16.27;54.53
9277;BME280;4676;42.678;23.244;2024-02-28T12:05:50;94364.63;;;16.11;56.37
9277;BME280;4676;42.678;23.244;2024-02-28T12:08:17;94378.38;;;16.38;55.63
9277;BME280;4676;42.678;23.244;2024-02-28T12:10:45;94378.56;;;16.35;55.03
9277;BME280;4676;42.678;23.244;2024-02-28T12:13:16;94379.09;;;16.40;55.79
9277;BME280;4676;42.678;23.244;2024-02-28T12:15:43;94379.00;;;16.27;54.39
9277;BME280;4676;42.678;23.244;2024-02-28T12:18:10;94377.44;;;16.25;53.92
9277;BME280;4676;42.678;23.244;2024-02-28T12:20:38;94366.22;;;16.41;55.97
9277;BME280;4676;42.678;23.244;2024-02-28T12:23:05;94365.38;;;16.57;54.23
9277;BME280;4676;42.678;23.244;2024-02-28T12:25:33;94369.38;;;16.61;53.59
9277;BME280;4676;42.678;23.244;2024-02-28T12:28:01;94368.34;;;16.49;53.11
9277;BME280;4676;42.678;23.244;2024-02-28T12:30:29;94367.97;;;16.41;52.95
9277;BME280;4676;42.678;23.244;2024-02-28T12:32:56;94365.50;;;16.39;54.20
9277;BME280;4676;42.678;23.244;2024-02-28T12:35:22;94369.81;;;16.39;53.44
9277;BME280;4676;42.678;23.244;2024-02-28T12:37:50;94376.06;;;16.33;54.34
9277;BME280;4676;42.678;23.244;2024-02-28T12:40:17;94334.66;;;16.13;56.87
9277;BME280;4676;42.678;23.244;2024-02-28T12:42:44;94325.97;;;16.15;55.32
9277;BME280;4676;42.678;23.244;2024-02-28T12:45:10;94362.94;;;16.25;53.61
9277;BME280;4676;42.678;23.244;2024-02-28T12:47:38;94363.44;;;16.16;53.33
9277;BME280;4676;42.678;23.244;2024-02-28T12:50:06;94355.25;;;15.95;53.27
9277;BME280;4676;42.678;23.244;2024-02-28T12:52:33;94358.53;;;15.97;53.58
9277;BME280;4676;42.678;23.244;2024-02-28T12:55:02;94361.09;;;15.97;53.29
9277;BME280;4676;42.678;23.244;2024-02-28T12:57:29;94348.25;;;15.99;53.17
9277;BME280;4676;42.678;23.244;2024-02-28T12:59:55;94368.72;;;16.13;55.08
9277;BME280;4676;42.678;23.244;2024-02-28T13:02:22;94357.41;;;16.17;55.58
9277;BME280;4676;42.678;23.244;2024-02-28T13:04:49;94352.06;;;16.36;55.90
9277;BME280;4676;42.678;23.244;2024-02-28T13:07:16;94361.75;;;16.45;55.28
9277;BME280;4676;42.678;23.244;2024-02-28T13:09:44;94362.84;;;16.41;55.52